createdAt,value
2024-03-23T00:12:26.359Z,21
2024-03-23T00:42:27.288Z,22
2024-03-23T01:12:27.512Z,22
2024-03-23T01:42:23.331Z,22
2024-03-23T02:12:18.607Z,22
2024-03-23T02:42:19.316Z,23
2024-03-23T03:12:22.155Z,24
2024-03-23T03:42:22.886Z,23
2024-03-23T04:12:17.405Z,32
2024-03-23T04:42:15.543Z,35
2024-03-23T05:12:15.655Z,24
2024-03-23T05:42:12.506Z,16
2024-03-23T06:12:12.012Z,17
2024-03-23T06:42:09.069Z,16
2024-03-23T07:13:20.369Z,17
2024-03-23T07:43:16.341Z,19
2024-03-23T08:13:18.384Z,22
2024-03-23T08:43:20.206Z,22
2024-03-23T09:13:21.142Z,24
2024-03-23T09:44:25.602Z,24
2024-03-23T10:13:58.512Z,22
2024-03-23T10:44:00.412Z,22
2024-03-23T11:15:08.266Z,25
2024-03-23T11:46:04.351Z,21
2024-03-23T12:15:54.166Z,22
2024-03-23T12:45:58.820Z,22
2024-03-23T13:16:04.794Z,22
2024-03-23T13:46:07.492Z,24
2024-03-23T14:16:07.854Z,15
2024-03-23T14:46:07.821Z,16
2024-03-23T15:16:13.340Z,16
2024-03-23T15:47:19.157Z,14
2024-03-23T16:17:13.797Z,15
2024-03-23T16:47:09.675Z,17
2024-03-23T17:17:02.088Z,18
2024-03-23T17:46:59.486Z,16
2024-03-23T18:17:00.517Z,17
2024-03-23T19:18:13.296Z,15
2024-03-23T19:48:04.247Z,13
2024-03-23T20:18:02.054Z,13
2024-03-23T20:47:57.785Z,13
2024-03-23T21:17:56.684Z,11
2024-03-23T21:49:07.507Z,11
2024-03-23T22:20:07.397Z,11
2024-03-23T22:50:00.270Z,12
2024-03-23T23:19:53.140Z,12
2024-03-23T23:49:51.957Z,11
